createdAt,value
2023-04-22T00:01:55.858Z,10.52
2023-04-22T00:04:22.568Z,10.02
2023-04-22T00:06:49.256Z,9.93
2023-04-22T00:09:15.826Z,11.07
2023-04-22T00:11:42.270Z,13.20
2023-04-22T00:14:08.714Z,10.55
2023-04-22T00:16:35.294Z,11.98
2023-04-22T00:19:01.800Z,11.27
2023-04-22T00:21:28.584Z,10.55
2023-04-22T00:23:55.079Z,9.98
2023-04-22T00:26:21.554Z,11.27
2023-04-22T00:28:48.036Z,10.75
2023-04-22T00:31:14.479Z,11.57
2023-04-22T00:33:41.052Z,10.35
2023-04-22T00:36:07.797Z,10.77
2023-04-22T00:38:34.260Z,11.40
2023-04-22T00:41:00.824Z,10.63
2023-04-22T00:43:27.269Z,12.35
2023-04-22T00:45:53.866Z,10.70
2023-04-22T00:48:20.896Z,10.30
2023-04-22T00:50:47.405Z,10.80
2023-04-22T00:53:13.868Z,10.38
2023-04-22T00:55:40.432Z,10.50
2023-04-22T00:58:06.978Z,10.93
2023-04-22T01:00:33.414Z,10.55
2023-04-22T01:03:00.234Z,12.27
2023-04-22T01:05:28.976Z,11.63
2023-04-22T01:07:55.474Z,11.55
2023-04-22T01:10:22.028Z,11.52
2023-04-22T01:12:48.510Z,10.88
2023-04-22T01:15:14.989Z,10.98
2023-04-22T01:17:41.613Z,12.27
2023-04-22T01:20:10.575Z,11.90
2023-04-22T01:22:41.826Z,11.68
2023-04-22T01:25:12.347Z,11.05
2023-04-22T01:27:39.653Z,12.35
2023-04-22T01:30:07.658Z,11.65
2023-04-22T01:32:34.293Z,12.68
2023-04-22T01:35:00.829Z,12.27
2023-04-22T01:37:28.670Z,11.95
2023-04-22T01:39:55.595Z,11.98
2023-04-22T01:42:22.319Z,12.75
2023-04-22T01:44:48.757Z,12.98
2023-04-22T01:47:15.288Z,12.80
2023-04-22T01:49:42.380Z,13.10
2023-04-22T01:52:09.012Z,14.10
2023-04-22T01:54:35.772Z,13.23
2023-04-22T01:57:10.016Z,13.60
2023-04-22T01:59:36.623Z,14.25
2023-04-22T02:02:03.220Z,14.38
2023-04-22T02:04:29.723Z,14.55
2023-04-22T02:06:56.228Z,14.27
2023-04-22T02:09:22.686Z,15.82
2023-04-22T02:11:49.107Z,14.68
2023-04-22T02:14:15.575Z,15.15
2023-04-22T02:16:42.435Z,13.75
2023-04-22T02:19:08.936Z,12.70
2023-04-22T02:21:35.542Z,13.13
2023-04-22T02:24:02.020Z,14.15
2023-04-22T02:26:28.684Z,14.07
2023-04-22T02:28:55.111Z,14.20
2023-04-22T02:31:21.618Z,15.98
2023-04-22T02:33:48.065Z,15.63
2023-04-22T02:36:14.515Z,15.27
2023-04-22T02:38:40.963Z,15.23
2023-04-22T02:41:07.478Z,15.43
2023-04-22T02:43:33.929Z,17.48
2023-04-22T02:46:00.392Z,14.88
2023-04-22T02:48:26.852Z,15.30
2023-04-22T02:50:53.358Z,17.10
2023-04-22T02:53:19.785Z,17.15
2023-04-22T02:55:46.249Z,16.65
2023-04-22T02:58:12.741Z,17.38
2023-04-22T03:00:39.297Z,17.27
2023-04-22T03:03:05.971Z,17.38
2023-04-22T03:05:32.486Z,16.27
2023-04-22T03:07:58.912Z,18.30
2023-04-22T03:10:25.330Z,16.70
2023-04-22T03:12:51.781Z,15.05
2023-04-22T03:15:21.219Z,14.85
2023-04-22T03:17:48.281Z,15.68
2023-04-22T03:20:15.137Z,15.02
2023-04-22T03:22:41.680Z,15.63
2023-04-22T03:25:08.558Z,15.90
2023-04-22T03:27:35.014Z,17.08
2023-04-22T03:30:01.577Z,15.45
2023-04-22T03:32:28.092Z,15.75
2023-04-22T03:34:54.550Z,16.85
2023-04-22T03:37:21.017Z,16.15
2023-04-22T03:39:47.476Z,15.65
2023-04-22T03:42:14.629Z,15.73
2023-04-22T03:44:41.396Z,16.27
2023-04-22T03:47:07.860Z,15.30
2023-04-22T03:49:34.856Z,17.25
2023-04-22T03:52:01.410Z,16.38
2023-04-22T03:54:27.931Z,16.48
2023-04-22T03:56:54.398Z,14.82
2023-04-22T03:59:21.128Z,15.85
2023-04-22T04:01:47.651Z,16.55
2023-04-22T04:04:14.220Z,15.65
2023-04-22T04:06:41.017Z,17.15
2023-04-22T04:09:07.528Z,16.13
2023-04-22T04:11:34.005Z,17.65
2023-04-22T04:14:00.443Z,16.40
2023-04-22T04:16:26.982Z,15.25
2023-04-22T04:18:53.481Z,14.90
2023-04-22T04:21:19.915Z,16.42
2023-04-22T04:23:47.210Z,17.58
2023-04-22T04:26:15.075Z,15.45
2023-04-22T04:28:42.123Z,16.50
2023-04-22T04:31:08.680Z,15.93
2023-04-22T04:33:36.945Z,16.00
2023-04-22T04:36:03.500Z,15.60
2023-04-22T04:38:30.203Z,15.38
2023-04-22T04:40:56.665Z,16.50
2023-04-22T04:43:25.788Z,17.60
2023-04-22T04:45:52.725Z,16.45
2023-04-22T04:48:19.943Z,18.23
2023-04-22T04:50:47.164Z,18.73
2023-04-22T04:53:13.737Z,19.25
2023-04-22T04:55:40.245Z,19.27
2023-04-22T04:58:06.998Z,19.13
2023-04-22T05:00:33.437Z,17.40
2023-04-22T05:03:00.043Z,19.42
2023-04-22T05:05:26.714Z,21.67
2023-04-22T05:07:53.850Z,19.75
2023-04-22T05:10:21.352Z,19.10
2023-04-22T05:12:47.909Z,19.17
2023-04-22T05:15:15.269Z,17.20
2023-04-22T05:17:41.817Z,17.67
2023-04-22T05:20:08.678Z,19.15
2023-04-22T05:22:36.622Z,19.52
2023-04-22T05:25:04.526Z,18.13
2023-04-22T05:27:31.170Z,19.42
2023-04-22T05:29:57.600Z,20.05
2023-04-22T05:32:24.244Z,20.15
2023-04-22T05:34:50.874Z,18.10
2023-04-22T05:37:17.312Z,18.83
2023-04-22T05:39:43.778Z,19.95
2023-04-22T05:42:10.250Z,18.75
2023-04-22T05:44:36.713Z,18.00
2023-04-22T05:47:03.332Z,18.58
2023-04-22T05:49:29.767Z,19.92
2023-04-22T05:51:56.231Z,18.58
2023-04-22T05:54:22.686Z,17.70
2023-04-22T05:56:49.263Z,16.83
2023-04-22T05:59:15.996Z,16.25
2023-04-22T06:01:42.818Z,19.17
2023-04-22T06:04:10.165Z,16.20
2023-04-22T06:06:37.201Z,16.33
2023-04-22T06:09:03.863Z,15.95
2023-04-22T06:11:30.410Z,17.13
2023-04-22T06:13:56.926Z,17.35
2023-04-22T06:16:23.554Z,18.52
2023-04-22T06:18:50.025Z,16.13
2023-04-22T06:21:16.666Z,16.20
2023-04-22T06:23:43.373Z,15.40
2023-04-22T06:26:10.001Z,16.98
2023-04-22T06:28:36.469Z,14.98
2023-04-22T06:31:02.977Z,13.48
2023-04-22T06:33:29.431Z,16.25
2023-04-22T06:35:55.863Z,14.82
2023-04-22T06:38:22.380Z,14.35
2023-04-22T06:40:48.888Z,14.88
2023-04-22T06:43:15.486Z,14.77
2023-04-22T06:45:42.484Z,14.27
2023-04-22T06:48:08.941Z,14.05
2023-04-22T06:50:36.016Z,14.02
2023-04-22T06:53:02.458Z,13.32
2023-04-22T06:55:29.069Z,14.07
2023-04-22T06:57:56.175Z,13.07
2023-04-22T07:00:22.784Z,11.65
2023-04-22T07:02:49.337Z,12.57
2023-04-22T07:05:16.326Z,11.75
2023-04-22T07:07:42.889Z,13.10
2023-04-22T07:10:10.818Z,12.93
2023-04-22T07:12:37.306Z,12.52
2023-04-22T07:15:04.046Z,12.32
2023-04-22T07:17:30.648Z,13.85
2023-04-22T07:19:57.157Z,11.05
2023-04-22T07:22:23.654Z,11.07
2023-04-22T07:24:50.142Z,9.73
2023-04-22T07:27:17.280Z,10.00
2023-04-22T07:29:43.796Z,9.02
2023-04-22T07:32:10.791Z,9.30
2023-04-22T07:34:37.341Z,8.13
2023-04-22T07:37:05.001Z,8.25
2023-04-22T07:39:31.606Z,8.50
2023-04-22T07:41:58.592Z,7.88
2023-04-22T07:44:25.199Z,5.70
2023-04-22T07:46:51.835Z,5.15
2023-04-22T07:49:18.417Z,4.07
2023-04-22T07:51:45.531Z,3.55
2023-04-22T07:54:12.351Z,3.55
2023-04-22T07:56:38.886Z,3.30
2023-04-22T07:59:05.987Z,3.22
2023-04-22T08:01:32.626Z,3.03
2023-04-22T08:03:59.426Z,4.60
2023-04-22T08:06:27.978Z,3.00
2023-04-22T08:08:54.572Z,3.30
2023-04-22T08:11:21.198Z,3.15
2023-04-22T08:13:47.714Z,3.97
2023-04-22T08:16:14.357Z,2.95
2023-04-22T08:18:41.100Z,1.85
2023-04-22T08:21:07.688Z,1.88
2023-04-22T08:23:34.289Z,3.13
2023-04-22T08:26:00.817Z,3.10
2023-04-22T08:28:27.323Z,3.22
2023-04-22T08:30:53.956Z,2.85
2023-04-22T08:33:20.498Z,2.95
2023-04-22T08:35:47.924Z,2.90
2023-04-22T08:38:14.421Z,2.70
2023-04-22T08:40:42.384Z,2.72
2023-04-22T08:43:09.665Z,1.77
2023-04-22T08:45:39.490Z,2.90
2023-04-22T08:48:08.663Z,3.42
2023-04-22T08:50:37.495Z,2.78
2023-04-22T08:53:04.077Z,2.80
2023-04-22T08:55:31.413Z,2.85
2023-04-22T08:58:01.086Z,2.28
2023-04-22T09:00:27.782Z,1.98
2023-04-22T09:02:55.192Z,1.73
2023-04-22T09:05:24.771Z,1.67
2023-04-22T09:07:52.865Z,2.58
2023-04-22T09:10:19.975Z,1.08
2023-04-22T09:12:48.587Z,1.70
2023-04-22T09:15:15.178Z,2.50
2023-04-22T09:17:43.306Z,1.60
2023-04-22T09:20:10.478Z,2.40
2023-04-22T09:22:42.686Z,2.35
2023-04-22T09:25:20.527Z,1.90
2023-04-22T09:27:51.049Z,2.47
2023-04-22T09:30:22.699Z,1.30
2023-04-22T09:32:54.671Z,2.28
2023-04-22T09:35:31.042Z,2.00
2023-04-22T09:37:59.075Z,1.45
2023-04-22T09:40:26.841Z,1.50
2023-04-22T09:42:58.553Z,1.55
2023-04-22T09:45:35.868Z,2.20
2023-04-22T09:48:14.259Z,2.30
2023-04-22T09:50:44.550Z,2.70
2023-04-22T09:53:14.320Z,2.28
2023-04-22T09:55:44.651Z,2.70
2023-04-22T09:58:14.062Z,2.42
2023-04-22T10:00:44.904Z,2.50
2023-04-22T10:03:11.685Z,2.20
2023-04-22T10:05:38.939Z,2.17
2023-04-22T10:08:06.890Z,2.28
2023-04-22T10:10:34.361Z,2.10
2023-04-22T10:13:01.600Z,2.20
2023-04-22T10:15:33.394Z,1.60
2023-04-22T10:18:00.909Z,1.58
2023-04-22T10:20:30.098Z,2.65
2023-04-22T10:22:56.899Z,1.20
2023-04-22T10:25:25.783Z,2.00
2023-04-22T10:28:05.963Z,2.75
2023-04-22T10:30:35.258Z,2.20
2023-04-22T10:33:20.682Z,2.95
2023-04-22T10:36:10.418Z,1.20
2023-04-22T10:38:37.981Z,2.50
2023-04-22T10:41:04.832Z,0.95
2023-04-22T10:43:45.562Z,2.50
2023-04-22T10:46:37.609Z,2.08
2023-04-22T10:49:11.971Z,2.30
2023-04-22T10:51:46.234Z,2.70
2023-04-22T10:54:31.545Z,2.10
2023-04-22T10:57:09.652Z,1.45
2023-04-22T10:59:53.016Z,1.92
2023-04-22T11:02:21.552Z,2.42
2023-04-22T11:04:48.981Z,1.77
2023-04-22T11:07:20.378Z,1.48
2023-04-22T11:09:50.929Z,1.48
2023-04-22T11:12:36.006Z,2.35
2023-04-22T11:15:09.067Z,2.10
2023-04-22T11:17:37.482Z,1.65
2023-04-22T11:20:05.959Z,2.08
2023-04-22T11:22:36.944Z,2.22
2023-04-22T11:25:05.479Z,2.15
2023-04-22T11:27:32.853Z,2.05
2023-04-22T11:30:04.595Z,2.50
2023-04-22T11:32:32.158Z,2.85
2023-04-22T11:34:58.689Z,2.13
2023-04-22T11:37:25.371Z,1.27
2023-04-22T11:40:13.796Z,2.13
2023-04-22T11:42:39.705Z,1.45
2023-04-22T11:45:08.102Z,1.25
2023-04-22T11:47:35.601Z,1.95
2023-04-22T11:50:07.121Z,1.80
2023-04-22T11:52:52.173Z,1.88
2023-04-22T11:55:30.110Z,2.10
2023-04-22T11:57:57.956Z,2.80
2023-04-22T12:00:29.716Z,1.98
2023-04-22T12:02:58.909Z,1.23
2023-04-22T12:05:44.055Z,1.65
2023-04-22T12:08:13.692Z,2.60
2023-04-22T12:10:41.876Z,2.72
2023-04-22T12:13:09.158Z,2.05
2023-04-22T12:15:43.113Z,3.00
2023-04-22T12:18:12.201Z,3.85
2023-04-22T12:20:42.553Z,2.50
2023-04-22T12:23:14.382Z,2.53
2023-04-22T12:25:41.803Z,2.88
2023-04-22T12:28:08.819Z,2.70
2023-04-22T12:30:35.454Z,3.03
2023-04-22T12:33:02.208Z,2.67
2023-04-22T12:35:28.698Z,3.28
2023-04-22T12:37:55.239Z,3.03
2023-04-22T12:40:21.831Z,2.28
2023-04-22T12:42:48.313Z,2.30
2023-04-22T12:45:16.153Z,2.17
2023-04-22T12:47:43.026Z,3.70
2023-04-22T12:50:09.728Z,2.88
2023-04-22T12:52:36.366Z,1.40
2023-04-22T12:55:02.895Z,1.85
2023-04-22T12:57:29.431Z,1.45
2023-04-22T12:59:56.593Z,2.60
2023-04-22T13:02:23.297Z,2.08
2023-04-22T13:04:49.830Z,1.98
2023-04-22T13:07:17.473Z,2.35
2023-04-22T13:09:44.354Z,2.03
2023-04-22T13:12:11.236Z,1.38
2023-04-22T13:14:37.819Z,2.60
2023-04-22T13:17:04.469Z,1.83
2023-04-22T13:19:31.860Z,1.50
2023-04-22T13:21:58.465Z,2.22
2023-04-22T13:24:25.024Z,3.40
2023-04-22T13:26:51.600Z,2.20
2023-04-22T13:29:18.285Z,2.38
2023-04-22T13:31:44.908Z,3.15
2023-04-22T13:34:11.952Z,1.35
2023-04-22T13:36:38.472Z,2.97
2023-04-22T13:39:05.837Z,2.58
2023-04-22T13:41:32.352Z,2.38
2023-04-22T13:43:59.660Z,2.03
2023-04-22T13:46:27.232Z,1.75
2023-04-22T13:48:54.755Z,2.65
2023-04-22T13:51:21.219Z,2.53
2023-04-22T13:53:47.721Z,1.40
2023-04-22T13:56:14.519Z,2.08
2023-04-22T13:58:42.438Z,1.33
2023-04-22T14:01:09.329Z,3.42
2023-04-22T14:03:36.550Z,2.58
2023-04-22T14:06:03.846Z,1.58
2023-04-22T14:08:30.637Z,2.85
2023-04-22T14:10:59.276Z,2.40
2023-04-22T14:13:29.858Z,2.72
2023-04-22T14:15:56.566Z,4.25
2023-04-22T14:18:23.382Z,3.60
2023-04-22T14:20:51.326Z,2.00
2023-04-22T14:23:19.153Z,2.97
2023-04-22T14:25:47.149Z,2.08
2023-04-22T14:28:15.190Z,2.03
2023-04-22T14:30:42.811Z,2.88
2023-04-22T14:33:09.591Z,2.28
2023-04-22T14:35:37.246Z,2.35
2023-04-22T14:38:07.141Z,2.72
2023-04-22T14:40:33.880Z,2.30
2023-04-22T14:43:02.623Z,2.03
2023-04-22T14:45:30.724Z,1.70
2023-04-22T14:47:58.066Z,1.10
2023-04-22T14:50:25.620Z,1.50
2023-04-22T14:52:53.434Z,1.02
2023-04-22T14:55:23.809Z,1.63
2023-04-22T14:57:53.538Z,0.73
2023-04-22T15:00:20.096Z,1.73
2023-04-22T15:02:47.046Z,1.98
2023-04-22T15:05:13.717Z,2.05
2023-04-22T15:07:40.372Z,1.33
2023-04-22T15:10:08.027Z,1.52
2023-04-22T15:12:34.618Z,1.70
2023-04-22T15:15:01.262Z,1.63
2023-04-22T15:17:29.019Z,2.60
2023-04-22T15:19:57.674Z,2.72
2023-04-22T15:22:25.300Z,1.58
2023-04-22T15:24:51.919Z,2.63
2023-04-22T15:27:18.566Z,1.95
2023-04-22T15:29:46.475Z,3.10
2023-04-22T15:32:13.043Z,2.65
2023-04-22T15:34:39.987Z,2.25
2023-04-22T15:37:07.898Z,1.35
2023-04-22T15:39:41.689Z,3.47
2023-04-22T15:42:08.477Z,2.33
2023-04-22T15:44:34.956Z,1.40
2023-04-22T15:47:01.548Z,1.90
2023-04-22T15:49:28.097Z,2.60
2023-04-22T15:51:54.646Z,1.98
2023-04-22T15:54:21.113Z,2.60
2023-04-22T15:56:47.663Z,3.40
2023-04-22T15:59:14.201Z,2.72
2023-04-22T16:01:40.963Z,2.83
2023-04-22T16:04:07.873Z,3.20
2023-04-22T16:06:35.629Z,3.22
2023-04-22T16:09:02.115Z,3.20
2023-04-22T16:11:28.565Z,2.97
2023-04-22T16:13:55.011Z,2.58
2023-04-22T16:16:21.776Z,3.72
2023-04-22T16:18:48.549Z,2.70
2023-04-22T16:21:15.116Z,2.17
2023-04-22T16:23:41.652Z,3.13
2023-04-22T16:26:08.206Z,2.90
2023-04-22T16:28:34.658Z,3.60
2023-04-22T16:31:01.257Z,3.03
2023-04-22T16:33:28.038Z,2.75
2023-04-22T16:35:54.495Z,2.13
2023-04-22T16:38:21.073Z,3.42
2023-04-22T16:40:47.581Z,1.77
2023-04-22T16:43:14.069Z,2.70
2023-04-22T16:45:40.708Z,3.58
2023-04-22T16:48:07.259Z,0.98
2023-04-22T16:50:33.804Z,2.90
2023-04-22T16:53:00.274Z,3.72
2023-04-22T16:55:26.775Z,1.80
2023-04-22T16:57:53.316Z,2.38
2023-04-22T17:00:20.849Z,2.53
2023-04-22T17:02:47.392Z,3.10
2023-04-22T17:05:13.963Z,2.58
2023-04-22T17:07:41.531Z,1.85
2023-04-22T17:10:08.655Z,4.25
2023-04-22T17:12:35.213Z,2.13
2023-04-22T17:15:01.753Z,1.67
2023-04-22T17:17:28.506Z,3.88
2023-04-22T17:19:55.131Z,6.32
2023-04-22T17:22:23.441Z,3.33
2023-04-22T17:24:50.249Z,3.10
2023-04-22T17:27:16.809Z,2.38
2023-04-22T17:29:43.367Z,4.10
2023-04-22T17:32:09.967Z,2.72
2023-04-22T17:34:36.546Z,8.05
2023-04-22T17:37:03.154Z,4.22
2023-04-22T17:39:29.728Z,5.82
2023-04-22T17:41:58.288Z,2.75
2023-04-22T17:44:25.696Z,5.88
2023-04-22T17:46:52.539Z,6.75
2023-04-22T17:49:18.988Z,9.82
2023-04-22T17:51:45.652Z,6.22
2023-04-22T17:54:12.206Z,8.52
2023-04-22T17:56:38.997Z,6.55
2023-04-22T17:59:05.610Z,4.20
2023-04-22T18:01:32.371Z,7.05
2023-04-22T18:03:59.407Z,6.50
2023-04-22T18:06:26.081Z,4.70
2023-04-22T18:08:52.636Z,3.55
2023-04-22T18:11:19.364Z,4.28
2023-04-22T18:13:45.864Z,7.65
2023-04-22T18:16:12.360Z,8.23
2023-04-22T18:18:38.914Z,14.27
2023-04-22T18:21:05.630Z,13.15
2023-04-22T18:23:32.165Z,9.25
2023-04-22T18:25:58.628Z,7.45
2023-04-22T18:28:25.130Z,6.10
2023-04-22T18:30:52.171Z,4.07
2023-04-22T18:33:18.746Z,3.13
2023-04-22T18:35:45.232Z,6.55
2023-04-22T18:38:11.774Z,8.23
2023-04-22T18:40:38.351Z,6.75
2023-04-22T18:43:04.827Z,7.82
2023-04-22T18:45:31.259Z,7.07
2023-04-22T18:47:58.902Z,7.10
2023-04-22T18:50:25.572Z,4.45
2023-04-22T18:52:52.797Z,6.13
2023-04-22T18:55:19.441Z,5.43
2023-04-22T18:57:46.239Z,5.97
2023-04-22T19:00:13.339Z,5.20
2023-04-22T19:02:42.277Z,5.95
2023-04-22T19:05:10.016Z,6.35
2023-04-22T19:07:37.232Z,6.28
2023-04-22T19:10:04.076Z,6.60
2023-04-22T19:12:30.524Z,6.38
2023-04-22T19:14:59.640Z,7.45
2023-04-22T19:17:26.931Z,7.57
2023-04-22T19:19:53.458Z,8.27
2023-04-22T19:22:21.018Z,8.10
2023-04-22T19:24:48.176Z,8.95
2023-04-22T19:27:14.900Z,8.07
2023-04-22T19:29:42.864Z,7.72
2023-04-22T19:32:11.502Z,7.13
2023-04-22T19:34:38.639Z,7.53
2023-04-22T19:37:05.274Z,8.05
2023-04-22T19:39:31.831Z,7.72
2023-04-22T19:41:58.642Z,7.07
2023-04-22T19:44:25.509Z,7.93
2023-04-22T19:46:52.906Z,7.30
2023-04-22T19:49:19.968Z,7.00
2023-04-22T19:51:46.746Z,2.42
2023-04-22T19:54:13.574Z,4.32
2023-04-22T19:56:41.389Z,3.25
2023-04-22T19:59:08.611Z,3.67
2023-04-22T20:01:39.773Z,1.80
2023-04-22T20:04:06.730Z,3.88
2023-04-22T20:06:33.844Z,4.40
2023-04-22T20:09:05.888Z,1.63
2023-04-22T20:11:32.893Z,5.05
2023-04-22T20:14:03.326Z,5.30
2023-04-22T20:16:30.892Z,6.88
2023-04-22T20:18:58.400Z,5.35
2023-04-22T20:21:31.883Z,7.57
2023-04-22T20:24:01.088Z,6.82
2023-04-22T20:26:28.266Z,10.98
2023-04-22T20:28:55.013Z,9.70
2023-04-22T20:31:23.449Z,7.00
2023-04-22T20:33:51.065Z,12.35
2023-04-22T20:36:18.804Z,12.20
2023-04-22T20:38:48.825Z,10.40
2023-04-22T20:41:18.825Z,15.20
2023-04-22T20:43:49.585Z,14.50
2023-04-22T20:46:22.694Z,11.88
2023-04-22T20:48:50.323Z,15.95
2023-04-22T20:51:16.812Z,8.98
2023-04-22T20:53:44.089Z,15.40
2023-04-22T20:56:10.532Z,17.48
2023-04-22T20:58:37.075Z,19.38
2023-04-22T21:01:10.281Z,5.53
2023-04-22T21:03:39.631Z,16.85
2023-04-22T21:06:06.827Z,11.60
2023-04-22T21:08:34.778Z,20.42
2023-04-22T21:11:01.474Z,20.25
2023-04-22T21:13:28.867Z,22.75
2023-04-22T21:16:10.486Z,21.90
2023-04-22T21:18:43.861Z,22.60
2023-04-22T21:21:10.919Z,21.05
2023-04-22T21:23:40.474Z,8.68
2023-04-22T21:26:09.774Z,20.15
2023-04-22T21:28:37.300Z,26.33
2023-04-22T21:31:04.091Z,26.90
2023-04-22T21:33:32.782Z,25.45
2023-04-22T21:35:59.335Z,26.30
2023-04-22T21:38:29.242Z,27.05
2023-04-22T21:40:55.763Z,22.00
2023-04-22T21:43:22.311Z,25.08
2023-04-22T21:45:48.816Z,23.92
2023-04-22T21:48:15.617Z,22.25
2023-04-22T21:50:42.092Z,25.73
2023-04-22T21:53:08.926Z,26.05
2023-04-22T21:55:38.865Z,22.02
2023-04-22T21:58:05.368Z,24.42
2023-04-22T22:00:32.497Z,25.70
2023-04-22T22:02:59.018Z,26.63
2023-04-22T22:05:25.841Z,27.73
2023-04-22T22:07:55.385Z,26.38
2023-04-22T22:10:22.559Z,26.73
2023-04-22T22:12:49.274Z,24.02
2023-04-22T22:15:16.295Z,26.63
2023-04-22T22:17:43.682Z,27.17
2023-04-22T22:20:12.527Z,25.65
2023-04-22T22:22:43.035Z,26.73
2023-04-22T22:25:12.129Z,16.73
2023-04-22T22:27:46.973Z,27.75
2023-04-22T22:30:13.880Z,28.08
2023-04-22T22:32:40.711Z,30.33
2023-04-22T22:35:07.891Z,28.30
2023-04-22T22:37:35.019Z,27.98
2023-04-22T22:40:01.760Z,29.88
2023-04-22T22:42:28.281Z,28.38
2023-04-22T22:44:55.674Z,31.38
2023-04-22T22:47:22.182Z,27.92
2023-04-22T22:49:48.741Z,29.27
2023-04-22T22:52:15.247Z,29.13
2023-04-22T22:54:42.182Z,29.75
2023-04-22T22:57:09.145Z,30.92
2023-04-22T22:59:37.009Z,31.50
2023-04-22T23:02:03.958Z,31.02
2023-04-22T23:04:30.692Z,29.88
2023-04-22T23:06:57.368Z,26.40
2023-04-22T23:09:23.866Z,32.03
2023-04-22T23:11:51.799Z,26.25
2023-04-22T23:14:19.440Z,23.17
2023-04-22T23:16:49.058Z,27.75
2023-04-22T23:19:19.610Z,30.25
2023-04-22T23:21:46.697Z,29.73
2023-04-22T23:24:14.757Z,30.23
2023-04-22T23:26:42.466Z,30.45
2023-04-22T23:29:09.480Z,31.25
2023-04-22T23:31:36.362Z,31.10
2023-04-22T23:34:05.465Z,31.92
2023-04-22T23:36:36.336Z,30.92
2023-04-22T23:39:04.280Z,29.70
2023-04-22T23:41:30.822Z,30.75
2023-04-22T23:43:57.302Z,31.05
2023-04-22T23:46:23.876Z,32.03
2023-04-22T23:48:50.515Z,31.15
2023-04-22T23:51:17.193Z,33.55
2023-04-22T23:53:45.354Z,32.13
2023-04-22T23:56:12.678Z,33.80
2023-04-22T23:58:39.464Z,29.77
